Time;durP1;ratioP1;P1;durP2;ratioP2;P2;SDS_P1;SDS_P2;PMS_P1;PMS_P2;Temp;Humidity;BMP_temperature;BMP_pressure;BME280_temperature;BME280_humidity;BME280_pressure;Samples;Min_cycle;Max_cycle;Signal;HPM_P1;HPM_P2
2023/07/19 00:00:20;;;;;;;16.05;9.30;;;;;;;;;;5071943;28;20024;-56
2023/07/19 00:02:46;;;;;;;15.65;9.07;;;;;;;;;;5072058;28;20031;-57
2023/07/19 00:05:12;;;;;;;16.58;9.02;;;;;;;;;;5071078;28;20017;-55
2023/07/19 00:07:38;;;;;;;17.30;9.10;;;;;;;;;;5053622;28;20039;-58
2023/07/19 00:10:05;;;;;;;15.73;8.63;;;;;;;;;;5071546;28;20073;-55
2023/07/19 00:12:33;;;;;;;17.23;8.57;;;;;;;;;;5071695;28;20079;-57
2023/07/19 00:14:59;;;;;;;16.83;8.95;;;;;;;;;;5072164;28;20028;-51
2023/07/19 00:17:25;;;;;;;17.50;9.00;;;;;;;;;;5071560;28;20162;-53
2023/07/19 00:19:51;;;;;;;15.65;8.30;;;;;;;;;;5071695;28;20127;-51
2023/07/19 00:22:17;;;;;;;16.45;8.43;;;;;;;;;;5053717;28;20024;-51
2023/07/19 00:24:43;;;;;;;19.25;9.23;;;;;;;;;;5070827;28;20370;-49
2023/07/19 00:27:09;;;;;;;15.57;8.60;;;;;;;;;;5071515;28;20048;-55
2023/07/19 00:29:35;;;;;;;17.77;9.07;;;;;;;;;;5071457;28;20423;-55
2023/07/19 00:32:01;;;;;;;15.52;8.48;;;;;;;;;;5071570;28;20025;-55
2023/07/19 00:34:27;;;;;;;15.40;8.48;;;;;;;;;;5070606;28;20047;-50
2023/07/19 00:36:53;;;;;;;18.13;8.15;;;;;;;;;;5071481;28;20620;-50
2023/07/19 00:39:19;;;;;;;16.80;8.13;;;;;;;;;;5071253;28;20028;-51
2023/07/19 00:41:45;;;;;;;16.45;8.40;;;;;;;;;;5071370;28;20029;-55
2023/07/19 00:44:11;;;;;;;15.85;8.27;;;;;;;;;;5070800;28;20032;-54
2023/07/19 00:46:38;;;;;;;16.15;8.50;;;;;;;;;;5053455;28;20028;-52
2023/07/19 00:49:04;;;;;;;17.10;7.97;;;;;;;;;;5071229;28;20035;-56
2023/07/19 00:51:30;;;;;;;15.30;8.45;;;;;;;;;;5071405;28;20027;-52
2023/07/19 00:53:57;;;;;;;19.42;9.48;;;;;;;;;;5070634;28;20465;-54
2023/07/19 00:56:24;;;;;;;16.83;9.90;;;;;;;;;;5070861;28;20032;-54
2023/07/19 00:58:50;;;;;;;16.13;9.02;;;;;;;;;;5071181;28;20107;-52
2023/07/19 01:01:16;;;;;;;17.42;8.90;;;;;;;;;;5071230;28;20104;-54
2023/07/19 01:03:42;;;;;;;17.95;9.63;;;;;;;;;;5074955;28;20111;-54
2023/07/19 01:06:08;;;;;;;19.75;9.63;;;;;;;;;;5056545;28;20024;-54
2023/07/19 01:08:35;;;;;;;18.05;9.75;;;;;;;;;;5074827;28;20494;-57
2023/07/19 01:11:01;;;;;;;16.75;9.68;;;;;;;;;;5075024;28;20044;-55
2023/07/19 01:13:27;;;;;;;19.55;9.70;;;;;;;;;;5074946;28;20024;-50
2023/07/19 01:15:53;;;;;;;18.02;9.63;;;;;;;;;;5074323;28;20104;-54
2023/07/19 01:18:19;;;;;;;16.30;9.35;;;;;;;;;;5056943;28;20119;-51
2023/07/19 01:20:46;;;;;;;17.10;9.52;;;;;;;;;;5074856;28;20539;-51
2023/07/19 01:23:12;;;;;;;18.05;9.35;;;;;;;;;;5074808;28;20097;-51
2023/07/19 01:25:38;;;;;;;16.90;8.80;;;;;;;;;;5074084;28;20028;-53
2023/07/19 01:28:04;;;;;;;16.58;9.57;;;;;;;;;;5074720;28;20029;-53
2023/07/19 01:30:31;;;;;;;20.75;10.18;;;;;;;;;;5057080;28;20112;-54
2023/07/19 01:32:56;;;;;;;17.27;9.43;;;;;;;;;;5074923;28;20460;-49
2023/07/19 01:35:23;;;;;;;18.33;9.85;;;;;;;;;;5074272;28;20095;-53
2023/07/19 01:37:49;;;;;;;17.30;9.30;;;;;;;;;;5074538;28;20393;-54
2023/07/19 01:40:15;;;;;;;18.40;9.50;;;;;;;;;;5074537;28;20031;-49
2023/07/19 01:42:41;;;;;;;16.60;9.20;;;;;;;;;;5074513;28;20043;-52
2023/07/19 01:45:07;;;;;;;18.42;9.27;;;;;;;;;;5073744;28;20400;-52
2023/07/19 01:47:34;;;;;;;16.80;9.20;;;;;;;;;;5074347;28;20027;-53
2023/07/19 01:50:00;;;;;;;16.08;9.38;;;;;;;;;;5074154;28;20028;-55
2023/07/19 01:52:26;;;;;;;17.60;9.27;;;;;;;;;;5056436;28;20028;-51
2023/07/19 01:54:52;;;;;;;16.35;8.88;;;;;;;;;;5055628;28;20056;-55
2023/07/19 01:57:18;;;;;;;21.60;10.57;;;;;;;;;;5074168;28;20064;-51
2023/07/19 01:59:44;;;;;;;16.92;9.18;;;;;;;;;;5074180;28;20060;-52
2023/07/19 02:02:10;;;;;;;16.88;8.82;;;;;;;;;;5074148;28;20054;-52
2023/07/19 02:04:36;;;;;;;16.45;8.82;;;;;;;;;;5073415;28;20025;-56
2023/07/19 02:07:02;;;;;;;20.35;9.30;;;;;;;;;;5073863;28;20025;-53
2023/07/19 02:09:28;;;;;;;22.25;10.07;;;;;;;;;;5073977;28;20028;-49
2023/07/19 02:11:54;;;;;;;16.15;8.98;;;;;;;;;;5073995;28;20024;-52
2023/07/19 02:14:20;;;;;;;17.65;9.38;;;;;;;;;;5072197;28;20028;-55
2023/07/19 02:16:45;;;;;;;18.23;9.55;;;;;;;;;;5073944;28;20533;-52
2023/07/19 02:19:11;;;;;;;18.10;9.38;;;;;;;;;;5073848;28;20029;-51
2023/07/19 02:21:37;;;;;;;17.75;9.30;;;;;;;;;;5073902;28;20031;-54
2023/07/19 02:24:04;;;;;;;18.80;9.45;;;;;;;;;;5073143;28;20036;-53
2023/07/19 02:26:30;;;;;;;17.50;9.43;;;;;;;;;;5073525;28;20453;-51
2023/07/19 02:28:55;;;;;;;16.13;9.65;;;;;;;;;;5073439;28;20024;-54
2023/07/19 02:31:21;;;;;;;17.08;9.57;;;;;;;;;;5055701;28;20078;-51
2023/07/19 02:33:47;;;;;;;16.63;9.80;;;;;;;;;;5073436;28;20028;-56
2023/07/19 02:36:14;;;;;;;16.52;9.63;;;;;;;;;;5072968;28;20052;-55
2023/07/19 02:38:40;;;;;;;16.30;9.48;;;;;;;;;;5055713;28;20028;-55
2023/07/19 02:41:07;;;;;;;17.02;9.43;;;;;;;;;;5073651;28;20029;-51
2023/07/19 02:43:33;;;;;;;16.52;9.07;;;;;;;;;;5073503;28;20481;-55
2023/07/19 02:45:59;;;;;;;17.25;9.30;;;;;;;;;;5072562;28;20078;-51
2023/07/19 02:48:25;;;;;;;17.15;9.48;;;;;;;;;;5073239;28;20081;-51
2023/07/19 02:50:51;;;;;;;18.95;9.43;;;;;;;;;;5055333;28;20021;-54
2023/07/19 02:53:17;;;;;;;16.95;9.07;;;;;;;;;;5073395;28;20472;-52
2023/07/19 02:55:44;;;;;;;18.88;9.10;;;;;;;;;;5072366;28;20082;-53
2023/07/19 02:58:10;;;;;;;17.25;9.45;;;;;;;;;;5055058;28;20400;-55
2023/07/19 03:00:40;;;;;;;16.30;8.75;;;;;;;;;;5073056;28;20021;-51
2023/07/19 03:03:07;;;;;;;18.58;9.32;;;;;;;;;;5055125;28;20485;-51
2023/07/19 03:05:34;;;;;;;18.83;9.60;;;;;;;;;;5072336;28;20370;-53
2023/07/19 03:08:01;;;;;;;17.63;9.50;;;;;;;;;;5073009;28;20032;-53
2023/07/19 03:10:27;;;;;;;17.10;8.43;;;;;;;;;;5073357;28;20025;-52
2023/07/19 03:12:53;;;;;;;17.92;9.45;;;;;;;;;;5072855;28;20104;-51
2023/07/19 03:15:19;;;;;;;17.80;9.40;;;;;;;;;;5072024;28;20045;-56
2023/07/19 03:17:45;;;;;;;19.48;9.70;;;;;;;;;;5072661;28;20024;-55
2023/07/19 03:20:11;;;;;;;17.33;8.90;;;;;;;;;;5072373;28;20090;-55
2023/07/19 03:22:37;;;;;;;17.90;9.88;;;;;;;;;;5069440;28;20089;-52
2023/07/19 03:25:03;;;;;;;18.05;9.93;;;;;;;;;;5071549;28;20469;-51
2023/07/19 03:27:29;;;;;;;22.83;10.73;;;;;;;;;;5072132;28;20372;-55
2023/07/19 03:29:55;;;;;;;18.45;9.00;;;;;;;;;;5054170;28;20032;-54
2023/07/19 03:32:21;;;;;;;16.65;8.63;;;;;;;;;;5072208;28;20025;-55
2023/07/19 03:34:47;;;;;;;19.60;9.52;;;;;;;;;;5071009;28;20017;-54
2023/07/19 03:37:13;;;;;;;19.85;10.10;;;;;;;;;;5072214;28;20021;-53
2023/07/19 03:39:40;;;;;;;19.33;8.85;;;;;;;;;;5072287;28;20024;-55
2023/07/19 03:42:07;;;;;;;19.80;9.65;;;;;;;;;;5054226;28;20060;-49
2023/07/19 03:44:33;;;;;;;18.83;9.43;;;;;;;;;;5071373;28;20048;-54
2023/07/19 03:46:59;;;;;;;19.27;9.57;;;;;;;;;;5072325;28;20614;-55
2023/07/19 03:49:25;;;;;;;17.77;9.07;;;;;;;;;;5071801;28;20029;-55
2023/07/19 03:51:51;;;;;;;21.17;9.75;;;;;;;;;;5071728;28;20021;-51
2023/07/19 03:54:17;;;;;;;18.42;9.77;;;;;;;;;;5071134;28;20484;-51
2023/07/19 03:56:43;;;;;;;19.13;10.40;;;;;;;;;;5071807;28;20020;-55
2023/07/19 03:59:09;;;;;;;19.65;9.35;;;;;;;;;;5071883;28;20059;-51
2023/07/19 04:01:36;;;;;;;24.13;10.00;;;;;;;;;;5071862;28;20052;-54
2023/07/19 04:04:03;;;;;;;18.80;10.23;;;;;;;;;;5053480;28;20078;-53
2023/07/19 04:06:29;;;;;;;19.58;10.32;;;;;;;;;;5071908;28;20016;-56
2023/07/19 04:08:55;;;;;;;17.23;9.65;;;;;;;;;;5071665;28;20442;-51
2023/07/19 04:11:21;;;;;;;17.98;9.63;;;;;;;;;;5071711;28;20021;-54
2023/07/19 04:13:48;;;;;;;20.35;9.32;;;;;;;;;;5071889;28;20073;-51
2023/07/19 04:16:14;;;;;;;17.42;9.88;;;;;;;;;;5071222;28;20024;-53
2023/07/19 04:18:40;;;;;;;18.80;10.20;;;;;;;;;;5070347;28;20472;-52
2023/07/19 04:21:06;;;;;;;20.88;9.88;;;;;;;;;;5063904;28;20028;-54
2023/07/19 04:23:32;;;;;;;18.75;10.05;;;;;;;;;;5071267;28;20146;-51
2023/07/19 04:25:58;;;;;;;21.25;9.88;;;;;;;;;;5070801;28;20025;-51
2023/07/19 04:28:24;;;;;;;18.98;9.20;;;;;;;;;;5071254;28;20043;-51
2023/07/19 04:30:50;;;;;;;18.52;10.30;;;;;;;;;;5071246;28;20100;-51
2023/07/19 04:33:16;;;;;;;17.17;9.68;;;;;;;;;;5071244;28;20025;-53
2023/07/19 04:35:42;;;;;;;17.52;9.70;;;;;;;;;;5070371;28;20031;-53
2023/07/19 04:38:08;;;;;;;18.35;10.13;;;;;;;;;;5076974;28;20095;-54
2023/07/19 04:40:34;;;;;;;17.10;9.20;;;;;;;;;;5077859;28;20056;-53
2023/07/19 04:43:01;;;;;;;18.65;9.77;;;;;;;;;;5078230;28;20031;-48
2023/07/19 04:45:27;;;;;;;20.50;10.18;;;;;;;;;;5077189;28;20021;-54
2023/07/19 04:47:53;;;;;;;17.55;9.88;;;;;;;;;;5077922;28;20024;-53
2023/07/19 04:50:19;;;;;;;17.75;9.52;;;;;;;;;;5077798;28;20047;-50
2023/07/19 04:52:45;;;;;;;18.20;9.82;;;;;;;;;;5077848;28;20103;-52
2023/07/19 04:55:12;;;;;;;17.80;9.80;;;;;;;;;;5077127;28;20025;-53
2023/07/19 04:57:38;;;;;;;17.80;9.27;;;;;;;;;;5077745;28;20138;-53
2023/07/19 05:00:05;;;;;;;23.15;10.88;;;;;;;;;;5077757;28;20082;-55
2023/07/19 05:02:31;;;;;;;18.75;10.15;;;;;;;;;;5077702;28;20062;-50
2023/07/19 05:04:57;;;;;;;17.98;10.02;;;;;;;;;;5076974;28;20025;-53
2023/07/19 05:07:23;;;;;;;18.38;10.70;;;;;;;;;;5077651;28;20028;-53
2023/07/19 05:09:49;;;;;;;19.38;10.38;;;;;;;;;;5077731;28;20034;-54
2023/07/19 05:12:15;;;;;;;17.98;10.35;;;;;;;;;;5059774;28;20070;-56
2023/07/19 05:14:41;;;;;;;18.48;10.75;;;;;;;;;;5076901;28;20528;-52
2023/07/19 05:17:07;;;;;;;20.90;11.77;;;;;;;;;;5077816;28;20033;-53
2023/07/19 05:19:33;;;;;;;17.75;10.45;;;;;;;;;;5077668;28;20020;-54
2023/07/19 05:21:59;;;;;;;18.27;10.82;;;;;;;;;;5077624;28;20524;-52
2023/07/19 05:24:26;;;;;;;20.48;10.95;;;;;;;;;;5077031;28;20028;-52
2023/07/19 05:26:52;;;;;;;18.70;11.43;;;;;;;;;;5077935;28;20461;-51
2023/07/19 05:29:18;;;;;;;19.98;11.18;;;;;;;;;;5077484;28;20024;-54
2023/07/19 05:31:44;;;;;;;18.10;10.85;;;;;;;;;;5059797;28;20366;-55
2023/07/19 05:34:10;;;;;;;20.15;10.48;;;;;;;;;;5076909;28;20187;-54
2023/07/19 05:36:37;;;;;;;18.80;12.13;;;;;;;;;;5077666;28;20020;-52
2023/07/19 05:39:04;;;;;;;17.10;10.83;;;;;;;;;;5077562;28;20396;-54
2023/07/19 05:41:30;;;;;;;17.75;10.57;;;;;;;;;;5077227;28;20274;-53
2023/07/19 05:43:57;;;;;;;18.10;11.07;;;;;;;;;;5077016;28;20032;-56
2023/07/19 05:46:23;;;;;;;17.92;11.10;;;;;;;;;;5077523;28;20043;-52
2023/07/19 05:48:49;;;;;;;18.52;10.43;;;;;;;;;;5075488;28;20369;-54
2023/07/19 05:51:15;;;;;;;18.33;11.20;;;;;;;;;;5074568;28;20384;-47
2023/07/19 05:53:41;;;;;;;18.42;10.60;;;;;;;;;;5074432;28;20115;-53
2023/07/19 05:56:07;;;;;;;18.08;10.60;;;;;;;;;;5073241;28;20031;-53
2023/07/19 05:58:33;;;;;;;17.67;10.30;;;;;;;;;;5074013;28;20024;-50
2023/07/19 06:00:59;;;;;;;18.42;10.75;;;;;;;;;;5074052;28;20021;-50
2023/07/19 06:03:25;;;;;;;18.40;11.07;;;;;;;;;;5074138;28;20086;-54
2023/07/19 06:05:51;;;;;;;18.02;10.82;;;;;;;;;;5073356;28;20025;-53
2023/07/19 06:08:17;;;;;;;17.85;10.10;;;;;;;;;;5073677;28;20033;-52
2023/07/19 06:10:43;;;;;;;18.50;9.88;;;;;;;;;;5070427;28;20079;-52
2023/07/19 06:13:13;;;;;;;18.92;11.02;;;;;;;;;;5073175;28;20025;-54
2023/07/19 06:15:40;;;;;;;17.52;10.80;;;;;;;;;;5063074;28;20021;-51
2023/07/19 06:18:06;;;;;;;18.48;10.27;;;;;;;;;;5073522;28;20043;-51
2023/07/19 06:20:32;;;;;;;16.70;9.90;;;;;;;;;;5063741;28;20362;-49
2023/07/19 06:22:58;;;;;;;18.25;10.38;;;;;;;;;;5073152;28;20013;-51
2023/07/19 06:25:24;;;;;;;20.05;10.30;;;;;;;;;;5072799;28;20016;-51
2023/07/19 06:27:50;;;;;;;19.40;10.63;;;;;;;;;;5055277;28;20393;-54
2023/07/19 06:30:16;;;;;;;16.83;9.90;;;;;;;;;;5073567;28;20032;-53
2023/07/19 06:32:42;;;;;;;19.88;10.30;;;;;;;;;;5073338;28;20032;-50
2023/07/19 06:35:09;;;;;;;19.25;10.57;;;;;;;;;;5068699;28;20017;-53
2023/07/19 06:37:35;;;;;;;23.13;10.80;;;;;;;;;;5071233;28;20020;-55
2023/07/19 06:40:03;;;;;;;18.27;9.63;;;;;;;;;;5073028;28;20032;-49
2023/07/19 06:42:30;;;;;;;20.10;10.05;;;;;;;;;;5073168;28;20028;-49
2023/07/19 06:44:56;;;;;;;19.45;9.80;;;;;;;;;;5072527;28;20472;-53
2023/07/19 06:47:22;;;;;;;17.52;10.55;;;;;;;;;;5073185;28;20043;-53
2023/07/19 06:49:48;;;;;;;18.67;10.07;;;;;;;;;;5073782;28;20032;-54
2023/07/19 06:52:14;;;;;;;18.75;9.65;;;;;;;;;;5073370;28;20025;-52
2023/07/19 06:54:40;;;;;;;17.35;9.63;;;;;;;;;;5072083;28;20524;-53
2023/07/19 06:57:06;;;;;;;21.23;10.40;;;;;;;;;;5072603;28;20021;-54
2023/07/19 06:59:32;;;;;;;17.08;9.43;;;;;;;;;;5072265;28;20024;-54
2023/07/19 07:01:58;;;;;;;18.85;10.20;;;;;;;;;;5072795;28;20024;-54
2023/07/19 07:04:24;;;;;;;19.00;10.00;;;;;;;;;;5071618;28;20545;-53
2023/07/19 07:06:50;;;;;;;19.48;9.30;;;;;;;;;;5072706;28;20078;-55
2023/07/19 07:09:17;;;;;;;16.77;8.85;;;;;;;;;;5072180;28;20029;-49
2023/07/19 07:11:43;;;;;;;19.83;10.15;;;;;;;;;;5062393;28;20031;-50
2023/07/19 07:14:10;;;;;;;15.65;9.45;;;;;;;;;;5070979;28;20108;-55
2023/07/19 07:16:36;;;;;;;22.15;10.27;;;;;;;;;;5072057;28;20021;-56
2023/07/19 07:19:02;;;;;;;19.98;10.35;;;;;;;;;;5072089;28;20055;-53
2023/07/19 07:21:28;;;;;;;17.77;10.60;;;;;;;;;;5072186;28;20043;-55
2023/07/19 07:23:54;;;;;;;18.30;10.95;;;;;;;;;;5071963;28;20040;-53
2023/07/19 07:26:21;;;;;;;18.42;9.88;;;;;;;;;;5071882;28;20024;-52
2023/07/19 07:28:47;;;;;;;19.50;10.48;;;;;;;;;;5072408;28;20028;-52
2023/07/19 07:31:13;;;;;;;17.17;10.30;;;;;;;;;;5072414;28;20081;-47
2023/07/19 07:33:39;;;;;;;18.63;10.75;;;;;;;;;;5072075;28;20104;-52
2023/07/19 07:36:05;;;;;;;17.70;10.95;;;;;;;;;;5053616;28;20027;-47
2023/07/19 07:38:31;;;;;;;19.38;10.95;;;;;;;;;;5072130;28;20484;-50
2023/07/19 07:41:06;;;;;;;17.60;11.00;;;;;;;;;;5071918;28;20158;-49
2023/07/19 07:43:33;;;;;;;17.85;11.30;;;;;;;;;;5071975;28;20524;-56
2023/07/19 07:45:59;;;;;;;16.13;10.52;;;;;;;;;;5070991;28;20235;-57
2023/07/19 07:48:25;;;;;;;17.63;11.60;;;;;;;;;;5071704;28;20093;-53
2023/07/19 07:50:51;;;;;;;17.23;11.48;;;;;;;;;;5071808;28;20017;-56
2023/07/19 07:53:21;;;;;;;20.58;12.15;;;;;;;;;;5053863;28;20031;-53
2023/07/19 07:55:47;;;;;;;18.85;11.80;;;;;;;;;;5071175;28;20027;-53
2023/07/19 07:58:13;;;;;;;18.05;11.50;;;;;;;;;;5071788;28;20044;-56
2023/07/19 08:00:40;;;;;;;17.60;11.23;;;;;;;;;;5071690;28;20028;-55
2023/07/19 08:03:06;;;;;;;16.63;10.68;;;;;;;;;;5071780;28;20021;-53
2023/07/19 08:05:32;;;;;;;23.75;11.13;;;;;;;;;;5071035;28;20032;-50
2023/07/19 08:07:58;;;;;;;17.05;10.73;;;;;;;;;;5071410;28;20031;-53
2023/07/19 08:10:24;;;;;;;17.08;10.90;;;;;;;;;;5071386;28;20493;-51
2023/07/19 08:12:50;;;;;;;29.55;11.00;;;;;;;;;;5052314;28;20017;-50
2023/07/19 08:15:16;;;;;;;22.45;11.25;;;;;;;;;;5070413;28;20090;-55
2023/07/19 08:17:42;;;;;;;17.00;11.10;;;;;;;;;;5071192;28;20040;-54
2023/07/19 08:20:09;;;;;;;16.52;11.20;;;;;;;;;;5071241;28;20077;-55
2023/07/19 08:22:37;;;;;;;16.33;10.60;;;;;;;;;;5071322;28;20485;-49
2023/07/19 08:25:04;;;;;;;15.93;10.38;;;;;;;;;;5070719;28;20174;-48
2023/07/19 08:27:30;;;;;;;19.98;10.98;;;;;;;;;;5071184;28;20025;-45
2023/07/19 08:29:56;;;;;;;17.77;10.73;;;;;;;;;;5069646;28;20025;-54
2023/07/19 08:32:22;;;;;;;16.13;10.45;;;;;;;;;;5069761;28;20365;-52
2023/07/19 08:34:48;;;;;;;18.83;11.05;;;;;;;;;;5070071;28;20017;-50
2023/07/19 08:37:14;;;;;;;16.98;10.57;;;;;;;;;;5070793;28;20033;-47
2023/07/19 08:39:40;;;;;;;16.98;10.77;;;;;;;;;;5071081;28;20381;-51
2023/07/19 08:42:06;;;;;;;31.50;12.27;;;;;;;;;;5053133;28;20029;-53
2023/07/19 08:44:33;;;;;;;17.15;10.63;;;;;;;;;;5070276;28;20086;-54
2023/07/19 08:46:59;;;;;;;17.05;10.85;;;;;;;;;;5071336;28;20025;-54
2023/07/19 08:49:25;;;;;;;18.55;11.63;;;;;;;;;;5071581;28;20028;-53
2023/07/19 08:51:51;;;;;;;17.65;11.35;;;;;;;;;;5071446;28;20107;-47
2023/07/19 08:54:17;;;;;;;16.63;11.20;;;;;;;;;;5070708;28;20044;-53
2023/07/19 08:56:43;;;;;;;16.20;10.93;;;;;;;;;;5071821;28;20031;-55
2023/07/19 08:59:10;;;;;;;16.77;10.93;;;;;;;;;;5071701;28;20364;-52
2023/07/19 09:01:36;;;;;;;19.77;10.77;;;;;;;;;;5071670;28;20442;-51
2023/07/19 09:04:09;;;;;;;19.90;11.20;;;;;;;;;;5070706;28;20155;-53
2023/07/19 09:06:35;;;;;;;16.20;10.48;;;;;;;;;;5070919;28;20021;-54
2023/07/19 09:09:01;;;;;;;19.13;11.20;;;;;;;;;;5064625;28;20035;-53
2023/07/19 09:11:27;;;;;;;17.90;10.68;;;;;;;;;;5062029;28;20020;-47
2023/07/19 09:13:54;;;;;;;16.40;10.65;;;;;;;;;;5070414;28;20092;-49
2023/07/19 09:16:47;;;;;;;16.52;11.05;;;;;;;;;;5070616;28;20052;-52
2023/07/19 09:19:13;;;;;;;17.05;11.30;;;;;;;;;;5066652;28;20413;-57
2023/07/19 09:21:43;;;;;;;18.25;11.57;;;;;;;;;;5070856;28;20082;-54
2023/07/19 09:24:10;;;;;;;16.80;11.65;;;;;;;;;;5071259;28;20020;-54
2023/07/19 09:26:44;;;;;;;17.55;11.80;;;;;;;;;;5056413;28;20033;-49
2023/07/19 09:29:11;;;;;;;17.80;11.45;;;;;;;;;;5056437;28;20107;-52
2023/07/19 09:31:57;;;;;;;18.25;11.88;;;;;;;;;;5074487;28;20380;-51
2023/07/19 09:34:27;;;;;;;18.60;11.60;;;;;;;;;;5073735;28;20032;-54
2023/07/19 09:36:53;;;;;;;16.60;11.40;;;;;;;;;;5056440;28;20135;-54
2023/07/19 09:39:19;;;;;;;18.10;11.82;;;;;;;;;;5066276;28;20035;-52
2023/07/19 09:41:45;;;;;;;15.57;11.40;;;;;;;;;;5071576;28;20609;-51
2023/07/19 09:44:13;;;;;;;18.70;12.27;;;;;;;;;;5065898;28;20032;-51
2023/07/19 09:46:39;;;;;;;17.63;12.83;;;;;;;;;;5066058;28;20039;-51
2023/07/19 09:49:05;;;;;;;17.58;12.20;;;;;;;;;;5073495;28;20275;-50
2023/07/19 09:51:32;;;;;;;21.40;12.02;;;;;;;;;;5073987;28;20734;-54
2023/07/19 09:54:01;;;;;;;16.80;11.50;;;;;;;;;;5072653;28;20468;-54
2023/07/19 09:56:27;;;;;;;16.75;12.15;;;;;;;;;;5073456;28;20025;-52
2023/07/19 09:58:54;;;;;;;21.88;12.40;;;;;;;;;;5073145;28;20102;-49
2023/07/19 10:01:22;;;;;;;17.77;11.80;;;;;;;;;;5055024;28;20062;-49
2023/07/19 10:03:48;;;;;;;17.90;11.52;;;;;;;;;;5073064;28;20017;-48
2023/07/19 10:06:17;;;;;;;17.65;11.57;;;;;;;;;;5072402;28;20158;-48
2023/07/19 10:08:43;;;;;;;17.75;11.23;;;;;;;;;;5073263;28;20055;-52
2023/07/19 10:11:21;;;;;;;18.02;11.88;;;;;;;;;;5073680;28;20498;-51
2023/07/19 10:13:57;;;;;;;20.67;12.48;;;;;;;;;;5073525;28;20027;-52
2023/07/19 10:16:24;;;;;;;18.17;12.38;;;;;;;;;;5072889;28;20046;-49
2023/07/19 10:19:10;;;;;;;16.15;12.23;;;;;;;;;;5072599;28;20032;-51
2023/07/19 10:21:36;;;;;;;17.88;11.88;;;;;;;;;;5071590;28;20032;-49
2023/07/19 10:24:08;;;;;;;18.60;12.00;;;;;;;;;;5071754;28;20032;-52
2023/07/19 10:26:37;;;;;;;18.42;12.50;;;;;;;;;;5072056;28;20028;-47
2023/07/19 10:29:06;;;;;;;18.05;12.18;;;;;;;;;;5073521;28;20039;-54
2023/07/19 10:31:32;;;;;;;18.25;12.07;;;;;;;;;;5073321;28;20028;-52
2023/07/19 10:33:58;;;;;;;16.17;11.30;;;;;;;;;;5071092;28;20025;-53
2023/07/19 10:36:24;;;;;;;17.40;11.30;;;;;;;;;;5069927;28;20487;-49
2023/07/19 10:38:50;;;;;;;17.25;10.98;;;;;;;;;;5071250;28;20028;-54
2023/07/19 10:41:19;;;;;;;16.70;11.55;;;;;;;;;;5071294;28;20264;-52
2023/07/19 10:43:45;;;;;;;17.98;11.85;;;;;;;;;;5071807;28;20121;-52
2023/07/19 10:46:12;;;;;;;18.48;11.50;;;;;;;;;;5070763;28;20027;-52
2023/07/19 10:48:38;;;;;;;18.25;11.75;;;;;;;;;;5071190;28;20025;-56
2023/07/19 10:51:08;;;;;;;16.90;11.32;;;;;;;;;;5054567;28;20104;-53
2023/07/19 10:53:47;;;;;;;17.42;11.60;;;;;;;;;;5055297;28;20031;-50
2023/07/19 10:56:14;;;;;;;17.73;11.13;;;;;;;;;;5071604;28;20172;-50
2023/07/19 10:58:40;;;;;;;17.35;11.55;;;;;;;;;;5072683;28;20544;-53
2023/07/19 11:01:06;;;;;;;17.58;11.63;;;;;;;;;;5072589;28;20035;-49
2023/07/19 11:03:32;;;;;;;18.05;11.40;;;;;;;;;;5072549;28;20314;-50
2023/07/19 11:05:59;;;;;;;15.38;10.95;;;;;;;;;;5072117;28;20108;-53
2023/07/19 11:08:26;;;;;;;18.77;11.95;;;;;;;;;;5072352;28;20119;-53
2023/07/19 11:10:54;;;;;;;18.27;11.65;;;;;;;;;;5072756;28;20028;-50
2023/07/19 11:13:21;;;;;;;17.50;11.18;;;;;;;;;;5054449;28;20017;-50
2023/07/19 11:15:48;;;;;;;17.35;11.05;;;;;;;;;;5051665;28;20035;-52
2023/07/19 11:18:23;;;;;;;19.95;11.20;;;;;;;;;;5052281;28;20024;-52
2023/07/19 11:20:49;;;;;;;18.27;11.65;;;;;;;;;;5052395;28;20044;-53
2023/07/19 11:23:15;;;;;;;17.23;11.48;;;;;;;;;;5052101;28;20025;-53
2023/07/19 11:25:42;;;;;;;17.13;11.07;;;;;;;;;;5051529;28;20028;-58
2023/07/19 11:28:08;;;;;;;16.88;11.20;;;;;;;;;;5051779;28;20021;-58
2023/07/19 11:30:37;;;;;;;16.48;10.68;;;;;;;;;;5051785;28;20469;-54
2023/07/19 11:33:07;;;;;;;19.95;11.40;;;;;;;;;;5052088;28;20167;-54
2023/07/19 11:35:34;;;;;;;20.05;11.18;;;;;;;;;;5051340;28;20533;-53
2023/07/19 11:38:01;;;;;;;16.40;11.20;;;;;;;;;;5051870;28;20036;-49
2023/07/19 11:40:27;;;;;;;17.25;11.55;;;;;;;;;;5051710;28;20499;-51
2023/07/19 11:42:53;;;;;;;18.17;11.82;;;;;;;;;;5051846;28;20080;-52
2023/07/19 11:45:19;;;;;;;17.67;11.68;;;;;;;;;;5051087;28;20021;-52
2023/07/19 11:47:46;;;;;;;16.20;10.85;;;;;;;;;;5051692;28;20040;-51
2023/07/19 11:50:13;;;;;;;16.73;11.95;;;;;;;;;;5050420;28;20064;-53
2023/07/19 11:52:46;;;;;;;21.73;12.57;;;;;;;;;;5052124;28;20040;-56
2023/07/19 11:55:13;;;;;;;18.02;12.38;;;;;;;;;;5051459;28;20032;-55
2023/07/19 11:57:39;;;;;;;16.10;12.23;;;;;;;;;;5058885;28;20083;-55
2023/07/19 12:00:06;;;;;;;16.63;12.07;;;;;;;;;;5068734;28;20122;-53
2023/07/19 12:02:32;;;;;;;17.13;12.52;;;;;;;;;;5052791;28;20064;-46
2023/07/19 12:04:58;;;;;;;17.67;12.50;;;;;;;;;;5070568;28;20097;-48
2023/07/19 12:07:24;;;;;;;16.90;12.00;;;;;;;;;;5071318;28;20036;-54
2023/07/19 12:09:50;;;;;;;20.25;12.68;;;;;;;;;;5071233;28;20059;-52
2023/07/19 12:12:16;;;;;;;18.15;12.90;;;;;;;;;;5061943;28;20489;-47
2023/07/19 12:14:42;;;;;;;17.70;12.90;;;;;;;;;;5049625;28;20025;-48
2023/07/19 12:17:08;;;;;;;18.73;12.77;;;;;;;;;;5052515;28;20032;-47
2023/07/19 12:19:34;;;;;;;17.75;12.40;;;;;;;;;;5051511;28;20407;-54
2023/07/19 12:22:00;;;;;;;18.23;12.45;;;;;;;;;;5051331;28;20033;-53
2023/07/19 12:24:26;;;;;;;19.00;12.95;;;;;;;;;;5050518;28;20029;-52
2023/07/19 12:26:52;;;;;;;18.67;13.27;;;;;;;;;;5051096;28;20397;-52
2023/07/19 12:29:18;;;;;;;19.67;13.50;;;;;;;;;;5050823;28;20028;-50
2023/07/19 12:31:45;;;;;;;16.90;13.02;;;;;;;;;;5051278;28;20087;-50
2023/07/19 12:34:11;;;;;;;18.08;13.35;;;;;;;;;;5050485;28;20017;-50
2023/07/19 12:36:37;;;;;;;18.23;13.43;;;;;;;;;;5050699;28;20036;-53
2023/07/19 12:39:04;;;;;;;16.88;13.20;;;;;;;;;;5050961;28;20510;-53
2023/07/19 12:41:30;;;;;;;20.20;13.63;;;;;;;;;;5051092;28;20029;-51
2023/07/19 12:43:56;;;;;;;18.35;13.23;;;;;;;;;;5050448;28;20082;-48
2023/07/19 12:46:22;;;;;;;17.88;12.80;;;;;;;;;;5050713;28;20404;-50
2023/07/19 12:48:48;;;;;;;17.90;13.30;;;;;;;;;;5050829;28;20074;-51
2023/07/19 12:51:15;;;;;;;17.77;13.20;;;;;;;;;;5050855;28;20032;-49
2023/07/19 12:53:41;;;;;;;17.80;12.82;;;;;;;;;;5049587;28;20017;-52
2023/07/19 12:56:07;;;;;;;18.48;12.70;;;;;;;;;;5050142;28;20079;-50
2023/07/19 12:58:33;;;;;;;17.98;12.63;;;;;;;;;;5052721;28;20432;-52
2023/07/19 13:00:59;;;;;;;17.10;12.88;;;;;;;;;;5054703;28;20032;-53
2023/07/19 13:03:25;;;;;;;17.38;13.05;;;;;;;;;;5055118;28;20029;-49
2023/07/19 13:05:51;;;;;;;17.58;12.73;;;;;;;;;;5054604;28;20032;-51
2023/07/19 13:08:17;;;;;;;18.50;13.13;;;;;;;;;;5054836;28;20036;-50
2023/07/19 13:10:44;;;;;;;17.60;12.40;;;;;;;;;;5054858;28;20104;-51
2023/07/19 13:13:10;;;;;;;17.92;12.57;;;;;;;;;;5071636;28;20020;-56
2023/07/19 13:15:37;;;;;;;16.60;12.50;;;;;;;;;;5074151;28;20092;-58
2023/07/19 13:18:04;;;;;;;17.83;12.83;;;;;;;;;;5073526;28;20029;-60
2023/07/19 13:20:30;;;;;;;18.30;12.70;;;;;;;;;;5074674;28;20266;-64
2023/07/19 13:22:56;;;;;;;16.83;11.77;;;;;;;;;;5074548;28;20040;-47
2023/07/19 13:25:22;;;;;;;16.95;12.80;;;;;;;;;;5073732;28;20039;-49
2023/07/19 13:27:48;;;;;;;19.40;13.38;;;;;;;;;;5075015;28;20020;-50
2023/07/19 13:30:14;;;;;;;17.73;12.73;;;;;;;;;;5074626;28;20392;-50
2023/07/19 13:32:41;;;;;;;19.42;12.85;;;;;;;;;;5074240;28;20025;-51
2023/07/19 13:35:07;;;;;;;18.45;12.98;;;;;;;;;;5073854;28;20027;-51
2023/07/19 13:37:33;;;;;;;17.52;12.60;;;;;;;;;;5074725;28;20027;-46
2023/07/19 13:39:59;;;;;;;18.45;12.35;;;;;;;;;;5071931;28;20032;-47
2023/07/19 13:42:25;;;;;;;19.80;12.55;;;;;;;;;;5064422;28;20029;-53
2023/07/19 13:44:52;;;;;;;17.83;12.68;;;;;;;;;;5062902;28;20025;-46
2023/07/19 13:47:18;;;;;;;17.52;12.30;;;;;;;;;;5070866;28;20476;-52
2023/07/19 13:49:44;;;;;;;18.55;12.27;;;;;;;;;;5074089;28;20032;-50
2023/07/19 13:52:10;;;;;;;18.05;12.38;;;;;;;;;;5060781;28;20146;-47
2023/07/19 13:54:36;;;;;;;17.48;12.20;;;;;;;;;;5036006;28;20108;-51
2023/07/19 13:57:04;;;;;;;17.63;12.40;;;;;;;;;;5055914;28;20158;-48
2023/07/19 13:59:30;;;;;;;18.73;12.68;;;;;;;;;;5074014;28;20082;-48
2023/07/19 14:01:56;;;;;;;17.65;12.07;;;;;;;;;;5074323;28;20068;-48
2023/07/19 14:04:22;;;;;;;17.30;12.23;;;;;;;;;;5073088;28;20035;-47
2023/07/19 14:06:48;;;;;;;19.48;12.13;;;;;;;;;;5073935;28;20542;-48
2023/07/19 14:09:14;;;;;;;16.60;11.85;;;;;;;;;;4705252;28;10000082;-48
2023/07/19 14:11:40;;;;;;;17.90;12.52;;;;;;;;;;5063212;28;20016;-50
2023/07/19 14:14:06;;;;;;;18.90;12.07;;;;;;;;;;5057752;28;20051;-49
2023/07/19 14:16:32;;;;;;;18.90;11.55;;;;;;;;;;5049963;28;20036;-54